Spring Hill, California
Current Conditions -  °F | °C
As of 2:40 PM on Saturday 25 Oct 2014 (Local Time) from KGOO Reporting Station
Overcast Overcast  
Wind Chill: 10°   Ceiling: 200
Heat Index: 10°   Visibility: 7mi
Dew Point: 10°   Wind: 6mph
Humidity: 100%   Direction: 120°ESE
Pressure: 30.11"   Gusts: NA
Location:  39.2183°N, 120.924°W
Report Text: KGOO 252140Z AUTO 12005KT 7SM BKN002 OVC015 10/10 A3011 RMK AO1
Loading
Personal Weather Stations






























Interactive Weather Map
Tropical Storm Tracking
New forecast layout! Learn more

10-Day Weather Forecast

Advertisements
Track Severe Weather on mobile